Time;durP1;ratioP1;P1;durP2;ratioP2;P2;SDS_P1;SDS_P2;PMS_P1;PMS_P2;Temp;Humidity;BMP_temperature;BMP_pressure;BME280_temperature;BME280_humidity;BME280_pressure;Samples;Min_cycle;Max_cycle;Signal;HPM_P1;HPM_P2
2021/10/14 00:01:58;;;;;;;32.50;6.80;;;15.30;61.10;;;;;;5046062;28;20552;-44
2021/10/14 00:04:24;;;;;;;8.63;6.50;;;15.30;59.70;;;;;;5045698;28;20196;-44
2021/10/14 00:06:50;;;;;;;49.20;8.07;;;15.40;58.60;;;;;;5046999;28;20199;-44
2021/10/14 00:09:15;;;;;;;7.10;6.40;;;15.40;57.80;;;;;;5049916;28;20196;-46
2021/10/14 00:11:41;;;;;;;11.03;5.50;;;15.30;57.00;;;;;;5051461;28;20279;-44
2021/10/14 00:14:07;;;;;;;13.23;5.90;;;15.20;56.60;;;;;;5045737;28;20215;-44
2021/10/14 00:16:33;;;;;;;21.33;6.37;;;15.20;56.40;;;;;;5048194;28;20285;-44
2021/10/14 00:18:59;;;;;;;32.67;6.23;;;15.20;56.70;;;;;;5046521;28;20470;-44
2021/10/14 00:21:25;;;;;;;12.20;5.40;;;15.10;56.60;;;;;;5047945;28;20241;-44
2021/10/14 00:23:51;;;;;;;16.10;6.00;;;15.00;56.40;;;;;;5049116;28;20810;-44
2021/10/14 00:26:16;;;;;;;9.77;6.17;;;14.90;56.60;;;;;;5046430;28;20192;-44
2021/10/14 00:28:42;;;;;;;25.97;6.23;;;14.80;56.70;;;;;;5051983;28;20574;-45
2021/10/14 00:31:07;;;;;;;7.40;5.83;;;14.80;57.00;;;;;;5049689;28;20287;-47
2021/10/14 00:33:33;;;;;;;16.53;6.00;;;14.70;57.10;;;;;;5042981;28;20192;-44
2021/10/14 00:35:58;;;;;;;10.67;6.43;;;14.60;57.30;;;;;;5048969;28;20201;-43
2021/10/14 00:38:24;;;;;;;10.43;6.20;;;14.60;57.50;;;;;;5049166;28;20255;-45
2021/10/14 00:40:50;;;;;;;28.97;6.57;;;14.50;57.30;;;;;;5048306;28;20714;-46
2021/10/14 00:43:15;;;;;;;28.57;7.63;;;14.50;57.40;;;;;;5041788;28;20193;-47
2021/10/14 00:45:41;;;;;;;29.30;6.90;;;14.50;57.30;;;;;;5046818;28;20215;-45
2021/10/14 00:48:06;;;;;;;54.20;8.10;;;14.50;57.20;;;;;;5051085;28;20192;-43
2021/10/14 00:50:32;;;;;;;12.80;5.90;;;14.50;56.70;;;;;;5046445;28;20311;-44
2021/10/14 00:52:58;;;;;;;23.80;7.33;;;14.60;56.80;;;;;;5049190;28;20614;-43
2021/10/14 00:55:23;;;;;;;28.93;7.93;;;14.60;57.00;;;;;;5039431;28;20587;-47
2021/10/14 00:57:49;;;;;;;22.50;6.47;;;14.60;57.10;;;;;;5051741;28;20310;-44
2021/10/14 01:00:16;;;;;;;11.80;6.63;;;14.70;57.30;;;;;;5043556;28;20199;-44
2021/10/14 01:02:42;;;;;;;6.90;6.20;;;14.70;57.50;;;;;;5046173;28;20852;-44
2021/10/14 01:05:08;;;;;;;23.67;7.13;;;14.60;56.80;;;;;;5049021;28;20474;-44
2021/10/14 01:07:34;;;;;;;32.77;6.90;;;14.60;57.10;;;;;;5047644;28;20438;-43
2021/10/14 01:10:00;;;;;;;7.53;6.37;;;14.70;57.20;;;;;;5049168;28;20439;-45
2021/10/14 01:12:27;;;;;;;17.10;6.30;;;14.70;57.00;;;;;;5046966;28;20202;-44
2021/10/14 01:14:52;;;;;;;12.23;6.43;;;14.70;57.00;;;;;;5040883;28;20547;-46
2021/10/14 01:17:18;;;;;;;17.37;6.63;;;14.70;56.80;;;;;;5046340;28;20542;-45
2021/10/14 01:19:44;;;;;;;8.40;6.00;;;14.70;56.40;;;;;;5045940;28;20207;-45
2021/10/14 01:22:10;;;;;;;9.60;6.20;;;14.60;56.10;;;;;;5049066;28;20224;-44
2021/10/14 01:24:35;;;;;;;11.43;6.00;;;14.60;56.70;;;;;;5046194;28;20690;-45
2021/10/14 01:27:05;;;;;;;22.20;5.60;;;14.50;56.40;;;;;;5048132;28;20530;-45
2021/10/14 01:29:32;;;;;;;7.40;6.20;;;14.50;56.10;;;;;;5044589;28;20721;-45
2021/10/14 01:31:58;;;;;;;6.23;5.50;;;14.40;56.30;;;;;;5049449;28;20451;-45
2021/10/14 01:34:23;;;;;;;6.40;5.80;;;14.40;56.60;;;;;;5044189;28;20806;-44
2021/10/14 01:36:49;;;;;;;7.77;5.90;;;14.40;57.00;;;;;;5050371;28;20444;-49
2021/10/14 01:39:14;;;;;;;9.17;5.20;;;14.50;57.00;;;;;;5047910;28;20197;-46
2021/10/14 01:41:44;;;;;;;15.47;5.87;;;14.40;56.20;;;;;;5051101;28;20602;-44
2021/10/14 01:44:10;;;;;;;9.37;5.80;;;14.20;57.00;;;;;;5043416;28;20192;-46
2021/10/14 01:46:36;;;;;;;20.63;6.17;;;14.20;57.70;;;;;;5043824;28;20854;-48
2021/10/14 01:49:01;;;;;;;12.30;6.30;;;14.10;57.50;;;;;;5045317;28;20238;-47
2021/10/14 01:51:27;;;;;;;24.93;7.20;;;13.80;57.60;;;;;;5051108;28;20201;-45
2021/10/14 01:53:52;;;;;;;27.20;6.90;;;13.70;58.00;;;;;;5047157;28;20233;-44
2021/10/14 01:56:18;;;;;;;17.73;6.60;;;13.40;58.30;;;;;;5045429;28;20547;-45
2021/10/14 01:58:44;;;;;;;19.93;6.87;;;13.00;58.70;;;;;;5048621;28;20228;-45
2021/10/14 02:01:10;;;;;;;25.60;5.90;;;12.80;59.40;;;;;;5048202;28;20275;-48
2021/10/14 02:03:35;;;;;;;11.33;6.57;;;12.60;59.90;;;;;;5045985;28;20203;-45
2021/10/14 02:06:01;;;;;;;6.87;6.17;;;12.40;60.60;;;;;;5037486;28;20447;-47
2021/10/14 02:08:27;;;;;;;22.70;6.50;;;12.40;61.00;;;;;;5047537;28;20279;-47
2021/10/14 02:10:52;;;;;;;7.23;5.30;;;12.00;61.10;;;;;;5049061;28;20266;-45
2021/10/14 02:13:18;;;;;;;6.73;6.03;;;11.90;62.90;;;;;;5043417;28;21026;-46
2021/10/14 02:15:43;;;;;;;35.03;7.37;;;11.90;62.70;;;;;;5045687;28;20193;-44
2021/10/14 02:18:09;;;;;;;15.60;6.80;;;11.90;62.60;;;;;;5046926;28;20274;-44
2021/10/14 02:20:35;;;;;;;32.10;6.83;;;11.90;62.50;;;;;;5049295;28;20645;-45
2021/10/14 02:23:00;;;;;;;19.57;6.23;;;12.00;62.40;;;;;;5050949;28;20195;-47
2021/10/14 02:25:27;;;;;;;13.63;6.83;;;12.00;62.20;;;;;;5051375;28;20189;-46
2021/10/14 02:27:52;;;;;;;13.20;6.60;;;11.90;62.40;;;;;;5054205;28;20703;-46
2021/10/14 02:30:18;;;;;;;22.50;7.37;;;11.90;62.00;;;;;;5049811;28;20550;-46
2021/10/14 02:32:44;;;;;;;14.93;7.20;;;12.00;62.00;;;;;;5050449;28;20563;-49
2021/10/14 02:35:10;;;;;;;18.43;7.10;;;12.00;62.20;;;;;;5050666;28;20447;-45
2021/10/14 02:37:36;;;;;;;25.00;7.43;;;12.00;62.50;;;;;;5053912;28;20310;-47
2021/10/14 02:40:02;;;;;;;47.40;7.87;;;11.90;63.20;;;;;;5052219;28;20435;-46
2021/10/14 02:42:28;;;;;;;31.47;7.00;;;11.70;62.80;;;;;;5046022;28;20185;-44
2021/10/14 02:44:53;;;;;;;11.67;6.77;;;11.70;63.20;;;;;;5041805;28;20477;-45
2021/10/14 02:47:19;;;;;;;33.20;7.40;;;11.60;63.00;;;;;;5046548;28;20204;-49
2021/10/14 02:49:45;;;;;;;37.73;7.97;;;11.70;63.00;;;;;;5046432;28;20231;-44
2021/10/14 02:52:10;;;;;;;10.60;6.60;;;11.70;63.10;;;;;;5049282;28;20242;-47
2021/10/14 02:54:36;;;;;;;7.03;6.30;;;11.70;63.00;;;;;;5049920;28;20196;-50
2021/10/14 02:57:01;;;;;;;10.10;5.77;;;11.60;63.20;;;;;;5048266;28;20220;-44
2021/10/14 02:59:27;;;;;;;6.60;5.97;;;11.50;63.30;;;;;;5050725;28;20258;-46
2021/10/14 03:01:53;;;;;;;9.07;5.57;;;11.60;63.30;;;;;;5050926;28;20208;-44
2021/10/14 03:04:18;;;;;;;17.63;6.67;;;11.30;62.40;;;;;;5046069;28;20192;-44
2021/10/14 03:06:44;;;;;;;12.73;6.20;;;11.30;63.30;;;;;;5046506;28;20648;-49
2021/10/14 03:09:09;;;;;;;28.20;5.90;;;11.20;63.00;;;;;;5048908;28;20192;-45
2021/10/14 03:11:35;;;;;;;18.03;6.03;;;11.30;62.90;;;;;;5051222;28;20624;-46
2021/10/14 03:14:01;;;;;;;8.03;5.50;;;11.20;62.80;;;;;;5049436;28;20565;-44
2021/10/14 03:16:27;;;;;;;27.27;5.63;;;11.20;63.30;;;;;;5049266;28;20500;-47
2021/10/14 03:18:53;;;;;;;37.67;7.50;;;10.70;64.10;;;;;;5046581;28;20889;-44
2021/10/14 03:21:19;;;;;;;55.87;7.70;;;10.60;64.50;;;;;;5050927;28;20192;-46
2021/10/14 03:23:45;;;;;;;29.57;6.67;;;10.50;65.30;;;;;;5050880;28;20211;-46
2021/10/14 03:26:11;;;;;;;27.23;6.63;;;10.50;66.10;;;;;;5048105;28;20435;-46
2021/10/14 03:28:37;;;;;;;35.17;7.00;;;10.60;65.90;;;;;;5049821;28;20439;-48
2021/10/14 03:31:03;;;;;;;19.27;6.27;;;10.60;65.30;;;;;;5046033;28;20450;-49
2021/10/14 03:33:28;;;;;;;31.43;6.60;;;10.80;65.40;;;;;;5047698;28;20551;-47
2021/10/14 03:35:54;;;;;;;16.27;6.97;;;11.00;64.80;;;;;;5049115;28;20443;-47
2021/10/14 03:38:20;;;;;;;19.27;6.00;;;11.20;64.40;;;;;;5051917;28;20224;-48
2021/10/14 03:40:45;;;;;;;29.30;6.80;;;11.00;63.50;;;;;;5047828;28;20200;-46
2021/10/14 03:43:11;;;;;;;6.87;6.07;;;10.70;64.60;;;;;;5042825;28;20231;-44
2021/10/14 03:45:36;;;;;;;9.77;5.53;;;10.70;65.40;;;;;;5047378;28;20184;-45
2021/10/14 03:48:02;;;;;;;18.60;6.00;;;10.80;64.80;;;;;;5041528;28;20184;-44
2021/10/14 03:50:28;;;;;;;11.53;5.33;;;11.00;64.40;;;;;;5047577;28;20240;-43
2021/10/14 03:52:53;;;;;;;15.53;5.87;;;11.10;64.00;;;;;;5044356;28;20188;-44
2021/10/14 03:55:19;;;;;;;14.73;5.73;;;11.10;63.60;;;;;;5045628;28;20231;-44
2021/10/14 03:57:45;;;;;;;8.53;4.70;;;11.10;63.10;;;;;;5041485;28;20310;-45
2021/10/14 04:00:11;;;;;;;11.37;5.30;;;11.10;63.10;;;;;;5048212;28;20204;-45
2021/10/14 04:02:36;;;;;;;8.60;5.33;;;11.20;62.80;;;;;;5049711;28;20184;-44
2021/10/14 04:05:03;;;;;;;6.17;5.57;;;11.20;62.00;;;;;;5048005;28;20492;-44
2021/10/14 04:07:29;;;;;;;13.20;5.70;;;11.30;61.90;;;;;;5049868;28;20261;-44
2021/10/14 04:09:54;;;;;;;6.30;5.70;;;11.30;61.60;;;;;;5049032;28;20435;-44
2021/10/14 04:12:20;;;;;;;10.27;5.70;;;11.30;61.30;;;;;;5050108;28;20211;-44
2021/10/14 04:14:45;;;;;;;6.07;4.70;;;11.30;61.10;;;;;;5047255;28;20881;-45
2021/10/14 04:17:11;;;;;;;5.30;4.80;;;11.40;61.00;;;;;;5044599;28;20378;-44
2021/10/14 04:19:37;;;;;;;7.53;5.00;;;11.40;60.70;;;;;;5050689;28;20675;-44
2021/10/14 04:22:03;;;;;;;11.83;5.17;;;11.40;60.60;;;;;;5046849;28;20192;-45
2021/10/14 04:24:29;;;;;;;9.83;5.87;;;11.40;60.40;;;;;;5049544;28;20283;-45
2021/10/14 04:26:55;;;;;;;5.83;5.30;;;11.40;60.20;;;;;;5047517;28;20545;-44
2021/10/14 04:29:21;;;;;;;7.13;5.87;;;11.40;60.00;;;;;;5046768;28;20439;-44
2021/10/14 04:31:48;;;;;;;6.60;6.00;;;11.40;60.10;;;;;;5047077;28;20446;-44
2021/10/14 04:34:13;;;;;;;5.40;4.90;;;11.40;60.10;;;;;;5047216;28;20447;-45
2021/10/14 04:36:39;;;;;;;5.60;5.10;;;11.40;60.20;;;;;;5047078;28;20956;-44
2021/10/14 04:39:06;;;;;;;6.87;4.73;;;11.40;60.30;;;;;;5048206;28;20575;-45
2021/10/14 04:41:33;;;;;;;6.03;4.70;;;11.30;60.50;;;;;;5046850;28;20465;-44
2021/10/14 04:43:59;;;;;;;11.73;5.47;;;11.30;60.90;;;;;;5049200;28;20439;-45
2021/10/14 04:46:24;;;;;;;6.47;5.20;;;11.30;61.10;;;;;;5047806;28;21885;-44
2021/10/14 04:48:50;;;;;;;12.40;5.90;;;11.30;61.40;;;;;;5049096;28;20282;-44
2021/10/14 04:51:16;;;;;;;6.00;5.40;;;11.20;61.60;;;;;;5051274;28;20201;-45
2021/10/14 04:53:41;;;;;;;9.10;6.10;;;11.20;62.00;;;;;;5049127;28;20207;-43
2021/10/14 04:56:07;;;;;;;6.17;5.43;;;11.30;62.40;;;;;;5045200;28;20215;-46
2021/10/14 04:58:32;;;;;;;12.13;6.17;;;11.40;64.10;;;;;;5046152;28;20707;-44
2021/10/14 05:00:58;;;;;;;7.23;6.30;;;11.70;64.70;;;;;;5045215;28;20192;-46
2021/10/14 05:03:24;;;;;;;8.13;6.07;;;11.90;64.60;;;;;;5047318;28;20267;-46
2021/10/14 05:05:50;;;;;;;5.73;5.23;;;12.20;64.20;;;;;;5046218;28;20200;-43
2021/10/14 05:08:15;;;;;;;6.43;5.50;;;12.40;63.50;;;;;;5041475;28;20926;-44
2021/10/14 05:10:41;;;;;;;5.20;4.70;;;12.50;63.10;;;;;;5046061;28;20184;-46
2021/10/14 05:13:07;;;;;;;5.60;5.10;;;12.60;62.20;;;;;;5045746;28;20909;-45
2021/10/14 05:15:33;;;;;;;5.40;4.83;;;12.70;61.50;;;;;;5048425;28;20939;-44
2021/10/14 05:17:59;;;;;;;5.57;5.07;;;12.70;59.90;;;;;;5045116;28;20572;-48
2021/10/14 05:20:24;;;;;;;5.50;5.00;;;12.80;60.00;;;;;;5027755;28;20193;-45
2021/10/14 05:22:50;;;;;;;4.73;4.27;;;12.80;59.40;;;;;;5045305;28;20215;-45
2021/10/14 05:25:16;;;;;;;5.93;5.33;;;12.70;59.70;;;;;;5049988;28;20712;-45
2021/10/14 05:27:41;;;;;;;7.10;6.40;;;12.70;59.50;;;;;;5047693;28;20266;-43
2021/10/14 05:30:07;;;;;;;6.27;5.53;;;12.60;59.50;;;;;;5045611;28;20216;-44
2021/10/14 05:32:33;;;;;;;6.30;5.53;;;12.40;59.40;;;;;;5039741;28;20193;-44
2021/10/14 05:34:59;;;;;;;8.00;5.13;;;12.40;60.00;;;;;;5041132;28;20500;-44
2021/10/14 05:37:29;;;;;;;5.87;5.30;;;12.40;59.60;;;;;;5047774;28;20315;-45
2021/10/14 05:39:55;;;;;;;6.60;5.60;;;12.60;60.00;;;;;;5047845;28;20482;-44
2021/10/14 05:42:21;;;;;;;6.10;5.50;;;12.70;59.80;;;;;;5048401;28;20446;-44
2021/10/14 05:44:46;;;;;;;7.37;5.60;;;12.80;59.50;;;;;;5046647;28;20436;-44
2021/10/14 05:47:12;;;;;;;5.47;4.97;;;12.80;59.00;;;;;;5050714;28;20221;-44
2021/10/14 05:49:38;;;;;;;7.03;6.37;;;12.90;58.90;;;;;;5050150;28;20270;-44
2021/10/14 05:52:04;;;;;;;5.77;5.17;;;12.90;58.70;;;;;;5050893;28;20242;-42
2021/10/14 05:54:30;;;;;;;7.30;6.20;;;12.90;58.40;;;;;;5052628;28;20200;-44
2021/10/14 05:56:56;;;;;;;5.90;4.93;;;12.80;58.30;;;;;;5053744;28;20449;-47
2021/10/14 05:59:22;;;;;;;6.20;5.60;;;12.30;59.20;;;;;;5052911;28;20246;-44
2021/10/14 06:01:47;;;;;;;6.67;5.70;;;11.90;60.00;;;;;;5051672;28;20459;-43
2021/10/14 06:04:13;;;;;;;6.93;6.27;;;11.70;61.20;;;;;;5050273;28;20246;-44
2021/10/14 06:06:38;;;;;;;6.40;5.30;;;11.60;62.10;;;;;;5053263;28;20193;-43
2021/10/14 06:09:04;;;;;;;5.87;5.33;;;11.60;61.70;;;;;;5051366;28;20197;-45
2021/10/14 06:11:29;;;;;;;6.70;6.07;;;11.60;61.70;;;;;;5053032;28;20200;-44
2021/10/14 06:13:55;;;;;;;7.40;6.30;;;11.40;62.60;;;;;;5052964;28;20192;-47
2021/10/14 06:16:21;;;;;;;6.07;5.47;;;11.50;62.80;;;;;;5054704;28;20227;-43
2021/10/14 06:18:47;;;;;;;5.83;5.23;;;11.40;62.80;;;;;;5053865;28;20848;-48
2021/10/14 06:21:12;;;;;;;6.33;5.80;;;11.50;62.80;;;;;;5054222;28;20709;-44
2021/10/14 06:23:38;;;;;;;6.10;5.50;;;11.40;63.20;;;;;;5054064;28;20247;-44
2021/10/14 06:26:04;;;;;;;7.73;5.67;;;11.40;63.50;;;;;;5053821;28;20200;-45
2021/10/14 06:28:30;;;;;;;5.50;4.97;;;11.30;63.30;;;;;;5054126;28;20776;-45
2021/10/14 06:30:56;;;;;;;5.93;5.33;;;11.20;63.70;;;;;;5052094;28;20227;-44
2021/10/14 06:33:21;;;;;;;6.57;5.70;;;11.10;64.70;;;;;;5054141;28;20196;-49
2021/10/14 06:35:47;;;;;;;8.00;5.87;;;11.30;64.70;;;;;;5035851;28;20570;-44
2021/10/14 06:38:12;;;;;;;6.27;5.13;;;11.30;64.20;;;;;;5053902;28;20251;-47
2021/10/14 06:40:38;;;;;;;7.83;6.17;;;11.10;64.20;;;;;;5053433;28;20562;-44
2021/10/14 06:43:04;;;;;;;5.53;5.03;;;11.20;65.50;;;;;;5053666;28;20189;-43
2021/10/14 06:45:29;;;;;;;6.80;5.63;;;11.30;65.30;;;;;;5053170;28;20622;-45
2021/10/14 06:47:55;;;;;;;8.60;5.63;;;11.40;65.10;;;;;;5053743;28;20192;-44
2021/10/14 06:50:21;;;;;;;6.10;5.50;;;11.40;65.10;;;;;;5053187;28;20293;-43
2021/10/14 06:52:46;;;;;;;5.90;5.33;;;11.30;64.60;;;;;;5053681;28;20195;-44
2021/10/14 06:55:12;;;;;;;6.93;5.67;;;11.30;65.10;;;;;;5053116;28;20431;-43
2021/10/14 06:57:38;;;;;;;5.57;5.07;;;11.40;65.40;;;;;;5049814;28;20212;-45
2021/10/14 07:00:05;;;;;;;6.67;5.37;;;11.40;64.90;;;;;;5053001;28;20272;-45
2021/10/14 07:02:31;;;;;;;6.97;5.20;;;11.50;64.80;;;;;;5053117;28;20205;-47
2021/10/14 07:04:56;;;;;;;6.73;5.10;;;11.60;64.40;;;;;;5052977;28;20895;-44
2021/10/14 07:07:22;;;;;;;5.87;5.27;;;11.60;64.20;;;;;;5053651;28;20195;-45
2021/10/14 07:09:47;;;;;;;6.40;5.70;;;11.50;65.00;;;;;;5052759;28;20262;-43
2021/10/14 07:12:14;;;;;;;6.73;5.50;;;11.20;65.90;;;;;;5052881;28;20200;-44
2021/10/14 07:14:41;;;;;;;6.23;5.60;;;11.00;66.80;;;;;;5052784;28;20205;-44
2021/10/14 07:17:06;;;;;;;6.33;5.23;;;11.00;67.90;;;;;;5053318;28;20493;-44
2021/10/14 07:19:33;;;;;;;5.90;5.30;;;11.20;66.70;;;;;;5052484;28;20427;-44
2021/10/14 07:21:59;;;;;;;5.33;4.40;;;11.40;67.10;;;;;;5052742;28;20205;-44
2021/10/14 07:24:25;;;;;;;6.40;4.80;;;11.60;66.50;;;;;;5051069;28;20517;-43
2021/10/14 07:26:51;;;;;;;7.27;6.07;;;11.40;65.70;;;;;;5053433;28;20423;-44
2021/10/14 07:29:17;;;;;;;5.53;5.13;;;11.20;66.60;;;;;;5052564;28;20426;-47
2021/10/14 07:31:43;;;;;;;6.23;5.63;;;11.50;67.40;;;;;;5052513;28;20449;-43
2021/10/14 07:34:08;;;;;;;5.50;4.90;;;11.70;66.50;;;;;;5052421;28;20519;-44
2021/10/14 07:36:34;;;;;;;4.57;4.17;;;11.30;65.60;;;;;;5053119;28;20193;-44
2021/10/14 07:39:01;;;;;;;5.70;5.00;;;11.00;66.60;;;;;;5052401;28;20224;-43
2021/10/14 07:41:27;;;;;;;7.10;5.53;;;11.00;67.70;;;;;;5052379;28;20567;-45
2021/10/14 07:43:53;;;;;;;5.40;4.90;;;11.00;67.60;;;;;;5052219;28;20424;-45
2021/10/14 07:46:18;;;;;;;7.17;5.10;;;11.00;68.20;;;;;;5053123;28;20477;-43
2021/10/14 07:48:44;;;;;;;6.57;5.47;;;11.20;67.70;;;;;;5052548;28;20240;-43
2021/10/14 07:51:10;;;;;;;8.17;5.50;;;11.30;67.60;;;;;;5050270;28;20254;-43
2021/10/14 07:53:36;;;;;;;6.93;4.97;;;11.60;67.60;;;;;;5052407;28;20200;-44
2021/10/14 07:56:01;;;;;;;9.50;5.37;;;11.50;67.00;;;;;;5051896;28;20197;-44
2021/10/14 07:58:27;;;;;;;5.83;5.10;;;11.60;67.70;;;;;;5050611;28;20231;-43
2021/10/14 08:00:52;;;;;;;5.27;4.87;;;11.60;67.50;;;;;;5051883;28;20196;-43
2021/10/14 08:03:18;;;;;;;5.77;4.97;;;11.70;67.40;;;;;;5051948;28;20678;-43
2021/10/14 08:05:44;;;;;;;5.57;4.73;;;12.00;66.90;;;;;;5051939;28;20196;-43
2021/10/14 08:08:10;;;;;;;6.23;4.90;;;12.20;65.80;;;;;;5052532;28;20197;-44
2021/10/14 08:10:36;;;;;;;5.90;4.87;;;12.40;64.90;;;;;;5051892;28;20560;-46
2021/10/14 08:13:03;;;;;;;9.57;4.23;;;12.40;64.20;;;;;;5051466;28;20189;-43
2021/10/14 08:15:28;;;;;;;6.20;4.60;;;12.50;63.60;;;;;;5051273;28;20431;-43
2021/10/14 08:17:54;;;;;;;4.70;4.30;;;12.50;63.70;;;;;;5050699;28;20841;-43
2021/10/14 08:20:20;;;;;;;5.10;4.27;;;12.40;63.30;;;;;;5051659;28;20570;-44
2021/10/14 08:22:45;;;;;;;4.33;3.93;;;12.30;63.70;;;;;;5051474;28;20193;-46
2021/10/14 08:25:13;;;;;;;4.70;3.70;;;12.10;63.50;;;;;;5051477;28;20185;-44
2021/10/14 08:27:39;;;;;;;5.67;4.40;;;12.20;64.40;;;;;;5051980;28;20185;-44
2021/10/14 08:30:06;;;;;;;5.67;4.70;;;12.60;64.50;;;;;;5051298;28;20419;-44
2021/10/14 08:32:33;;;;;;;8.10;5.97;;;12.40;63.60;;;;;;5051538;28;20423;-45
2021/10/14 08:34:58;;;;;;;5.70;5.17;;;12.60;64.40;;;;;;5051460;28;20509;-43
2021/10/14 08:37:24;;;;;;;6.37;5.27;;;12.60;63.90;;;;;;5051847;28;20638;-44
2021/10/14 08:39:50;;;;;;;5.10;4.37;;;12.80;63.70;;;;;;5051473;28;20423;-44
2021/10/14 08:42:17;;;;;;;8.17;4.33;;;12.70;63.20;;;;;;5051282;28;20206;-43
2021/10/14 08:44:43;;;;;;;4.73;4.33;;;12.80;63.40;;;;;;5049573;28;20431;-44
2021/10/14 08:47:12;;;;;;;6.13;3.97;;;13.00;63.00;;;;;;5051809;28;20427;-44
2021/10/14 08:49:41;;;;;;;7.37;4.73;;;13.10;63.00;;;;;;5051233;28;20243;-44
2021/10/14 08:52:07;;;;;;;4.20;3.80;;;13.30;63.70;;;;;;5051277;28;20438;-43
2021/10/14 08:54:33;;;;;;;5.43;4.80;;;13.50;60.70;;;;;;5051173;28;20431;-44
2021/10/14 08:56:59;;;;;;;6.97;4.10;;;13.40;60.10;;;;;;5049474;28;20227;-44
2021/10/14 08:59:25;;;;;;;4.37;3.33;;;13.40;60.10;;;;;;5051005;28;20228;-45
2021/10/14 09:02:10;;;;;;;5.30;3.57;;;13.70;60.50;;;;;;5051238;28;20451;-44
2021/10/14 09:04:49;;;;;;;4.70;4.30;;;14.00;59.20;;;;;;5050918;28;20204;-46
2021/10/14 09:07:15;;;;;;;4.67;4.03;;;14.20;58.40;;;;;;5051462;28;20439;-44
2021/10/14 09:09:41;;;;;;;7.27;4.40;;;14.60;58.40;;;;;;5049076;28;20918;-44
2021/10/14 09:12:09;;;;;;;4.50;4.10;;;14.60;57.20;;;;;;5051143;28;20471;-44
2021/10/14 09:14:54;;;;;;;6.67;3.70;;;14.50;58.00;;;;;;5050767;28;20484;-43
2021/10/14 09:17:40;;;;;;;6.27;3.63;;;14.90;57.00;;;;;;5051265;28;20553;-44
2021/10/14 09:20:20;;;;;;;6.50;3.63;;;15.00;56.90;;;;;;5050839;28;20431;-43
2021/10/14 09:23:17;;;;;;;4.40;3.50;;;15.20;56.80;;;;;;5050925;28;20457;-44
2021/10/14 09:25:53;;;;;;;6.90;3.90;;;15.60;56.50;;;;;;5050525;28;20455;-44
2021/10/14 09:28:19;;;;;;;4.90;3.67;;;15.70;54.80;;;;;;5054558;28;20525;-44
2021/10/14 09:30:48;;;;;;;6.57;3.80;;;15.70;55.80;;;;;;5054743;28;20850;-44
2021/10/14 09:33:29;;;;;;;3.43;3.13;;;16.00;55.40;;;;;;5054699;28;20192;-44
2021/10/14 09:35:55;;;;;;;4.20;3.77;;;16.30;53.00;;;;;;5052777;28;20427;-44
2021/10/14 09:38:32;;;;;;;7.30;4.77;;;16.50;54.20;;;;;;5055450;28;20478;-44
2021/10/14 09:41:05;;;;;;;4.70;3.50;;;16.70;53.00;;;;;;5054297;28;20514;-45
2021/10/14 09:43:31;;;;;;;4.33;3.90;;;16.70;51.90;;;;;;5054822;28;20434;-44
2021/10/14 09:45:57;;;;;;;4.20;3.70;;;16.70;51.80;;;;;;5054321;28;20464;-44
2021/10/14 09:48:23;;;;;;;5.03;3.43;;;16.70;52.80;;;;;;5055232;28;20427;-45
2021/10/14 09:50:49;;;;;;;4.13;3.73;;;16.80;52.10;;;;;;5054517;28;20426;-45
2021/10/14 09:53:17;;;;;;;4.63;4.30;;;16.80;51.60;;;;;;5036517;28;20246;-44
2021/10/14 09:55:44;;;;;;;3.43;3.13;;;16.80;51.00;;;;;;5054172;28;20434;-44
2021/10/14 09:58:10;;;;;;;5.93;3.77;;;17.00;51.60;;;;;;5052903;28;20489;-44
2021/10/14 10:00:37;;;;;;;3.00;2.70;;;17.20;51.00;;;;;;5054019;28;20430;-44
2021/10/14 10:03:09;;;;;;;4.20;3.40;;;17.50;51.20;;;;;;5052799;28;20245;-44
2021/10/14 10:05:38;;;;;;;4.30;3.10;;;17.80;49.80;;;;;;5054193;28;20522;-45
2021/10/14 10:08:09;;;;;;;3.60;3.30;;;17.90;50.90;;;;;;5055035;28;20442;-44
2021/10/14 10:10:41;;;;;;;5.87;3.80;;;17.40;48.50;;;;;;5053929;28;20441;-44
2021/10/14 10:13:07;;;;;;;5.83;3.43;;;17.20;50.30;;;;;;5054283;28;20757;-44
2021/10/14 10:15:40;;;;;;;4.00;3.57;;;17.00;49.70;;;;;;5053875;28;20510;-44
2021/10/14 10:18:27;;;;;;;6.20;3.27;;;17.20;50.40;;;;;;5054119;28;21287;-44
2021/10/14 10:21:04;;;;;;;3.90;3.07;;;17.50;49.50;;;;;;5053936;28;20439;-44
2021/10/14 10:23:42;;;;;;;3.60;2.97;;;17.90;48.50;;;;;;5054362;28;20426;-44
2021/10/14 10:26:33;;;;;;;5.67;3.20;;;18.10;48.80;;;;;;5053732;28;20434;-44
2021/10/14 10:29:23;;;;;;;3.67;3.30;;;18.40;47.70;;;;;;5051779;28;20446;-44
2021/10/14 10:31:49;;;;;;;5.30;3.63;;;18.70;47.20;;;;;;5054025;28;20427;-44
2021/10/14 10:34:50;;;;;;;5.43;3.60;;;18.90;47.00;;;;;;5053535;28;20438;-44
2021/10/14 10:37:26;;;;;;;4.47;3.27;;;19.20;46.50;;;;;;5054015;28;20435;-45
2021/10/14 10:40:01;;;;;;;3.50;3.20;;;19.40;47.10;;;;;;5053434;28;20968;-46
2021/10/14 10:42:29;;;;;;;6.50;3.70;;;19.50;45.90;;;;;;5053546;28;20443;-44
2021/10/14 10:45:05;;;;;;;4.50;3.00;;;19.60;45.40;;;;;;5053390;28;20945;-45
2021/10/14 10:47:39;;;;;;;5.00;3.40;;;19.80;44.60;;;;;;5053653;28;20437;-45
2021/10/14 10:50:29;;;;;;;3.47;2.97;;;20.10;44.60;;;;;;5053549;28;20470;-44
2021/10/14 10:53:14;;;;;;;3.80;3.23;;;20.20;45.20;;;;;;5027487;28;20467;-44
2021/10/14 10:55:42;;;;;;;3.03;2.83;;;20.40;44.50;;;;;;5051179;28;20934;-45
2021/10/14 10:58:10;;;;;;;3.33;3.03;;;20.60;43.60;;;;;;5051915;28;20824;-45
2021/10/14 11:00:38;;;;;;;4.67;2.93;;;20.60;42.70;;;;;;5053160;28;20449;-45
2021/10/14 11:03:16;;;;;;;3.27;2.90;;;20.60;42.90;;;;;;5053302;28;20434;-44
2021/10/14 11:05:54;;;;;;;7.03;3.10;;;20.90;42.80;;;;;;5053011;28;20454;-45
2021/10/14 11:08:21;;;;;;;5.53;3.00;;;21.00;44.00;;;;;;5053523;28;20442;-44
2021/10/14 11:10:53;;;;;;;5.13;2.93;;;21.10;42.20;;;;;;5052706;28;20934;-46
2021/10/14 11:13:19;;;;;;;6.80;3.70;;;21.10;42.40;;;;;;5053505;28;20852;-45
2021/10/14 11:15:50;;;;;;;7.60;4.10;;;21.20;41.70;;;;;;5052688;28;20415;-45
2021/10/14 11:18:16;;;;;;;4.13;2.90;;;21.20;42.20;;;;;;5053245;28;20565;-44
2021/10/14 11:20:53;;;;;;;4.90;3.67;;;21.30;43.90;;;;;;5052795;28;21001;-45
2021/10/14 11:23:20;;;;;;;4.20;2.77;;;21.40;43.80;;;;;;5051810;28;20188;-44
2021/10/14 11:26:08;;;;;;;4.93;3.37;;;21.50;44.80;;;;;;5052661;28;20438;-45
2021/10/14 11:28:53;;;;;;;5.33;3.23;;;21.60;42.40;;;;;;5053064;28;20521;-45
2021/10/14 11:31:42;;;;;;;3.60;3.30;;;21.60;41.20;;;;;;5052776;28;20946;-44
2021/10/14 11:34:16;;;;;;;3.93;3.30;;;21.60;41.40;;;;;;5052403;28;20463;-45
2021/10/14 11:36:55;;;;;;;5.40;3.43;;;21.60;41.80;;;;;;5052684;28;20445;-45
2021/10/14 11:39:38;;;;;;;3.70;2.87;;;21.50;41.80;;;;;;5052391;28;20474;-44
2021/10/14 11:42:22;;;;;;;6.23;3.53;;;21.60;41.80;;;;;;5052788;28;20439;-44
2021/10/14 11:44:55;;;;;;;4.77;3.47;;;21.60;42.10;;;;;;5052250;28;20432;-44
2021/10/14 11:47:22;;;;;;;2.93;2.70;;;21.50;42.40;;;;;;5053151;28;20796;-44
2021/10/14 11:49:58;;;;;;;4.63;3.33;;;21.60;42.50;;;;;;5049822;28;20473;-45
2021/10/14 11:52:24;;;;;;;5.00;3.30;;;21.70;42.40;;;;;;5052196;28;20475;-44
2021/10/14 11:54:49;;;;;;;5.27;3.53;;;21.60;41.30;;;;;;5052067;28;20522;-44
2021/10/14 11:57:15;;;;;;;4.37;2.97;;;21.30;42.10;;;;;;5050792;28;20201;-44
2021/10/14 11:59:41;;;;;;;3.90;3.20;;;21.30;42.10;;;;;;5051926;28;20181;-44
2021/10/14 12:02:20;;;;;;;7.10;3.40;;;21.50;41.90;;;;;;5052216;28;20299;-44
2021/10/14 12:04:51;;;;;;;7.43;2.90;;;21.60;40.90;;;;;;5051914;28;20199;-47
2021/10/14 12:07:28;;;;;;;3.07;2.70;;;21.70;41.10;;;;;;5052366;28;20435;-44
2021/10/14 12:09:55;;;;;;;8.90;3.60;;;21.70;41.80;;;;;;5051775;28;21490;-45
2021/10/14 12:12:30;;;;;;;3.40;3.10;;;21.70;42.00;;;;;;5052230;28;20427;-45
2021/10/14 12:15:05;;;;;;;5.10;3.30;;;21.60;41.30;;;;;;5050162;28;21972;-46
2021/10/14 12:17:38;;;;;;;3.50;2.73;;;21.60;41.50;;;;;;5052094;28;20466;-45
2021/10/14 12:20:13;;;;;;;4.80;2.77;;;21.70;42.20;;;;;;5051677;28;20447;-44
2021/10/14 12:22:44;;;;;;;3.63;2.90;;;21.80;42.00;;;;;;5051520;28;20811;-45
2021/10/14 12:25:10;;;;;;;2.87;2.57;;;21.80;41.90;;;;;;5051730;28;20512;-44
2021/10/14 12:27:42;;;;;;;5.03;2.50;;;21.90;42.40;;;;;;5052148;28;20423;-45
2021/10/14 12:30:18;;;;;;;4.20;3.07;;;21.90;42.10;;;;;;5051420;28;20550;-44
2021/10/14 12:32:43;;;;;;;3.87;3.27;;;22.00;41.90;;;;;;5051513;28;20790;-44
2021/10/14 12:35:09;;;;;;;4.47;3.10;;;22.00;41.20;;;;;;5051370;28;20424;-44
2021/10/14 12:37:35;;;;;;;6.43;2.87;;;22.00;41.30;;;;;;5051936;28;20236;-46
2021/10/14 12:40:19;;;;;;;5.97;2.60;;;22.00;41.90;;;;;;5051397;28;20188;-47
2021/10/14 12:45:40;;;;;;;5.20;4.47;;;22.00;43.10;;;;;;5051218;28;20434;-45
2021/10/14 12:48:48;;;;;;;3.57;2.53;;;21.90;42.50;;;;;;5051777;28;20431;-45
2021/10/14 12:51:26;;;;;;;3.57;2.30;;;21.90;42.40;;;;;;5050886;28;20435;-44